WXM80 ListenWXM80 Stop

You find our weather info also at:

UK Metoffice

WeatherCloud

Weather Underground

Northeastern Weather Network

AWEKAS

Citizen Weather Observer Program (CWOP)

HAMweather, WeatherForYou, PWS Weather


Weather Underground History page Text

Daily Summary for May 17, 2017 Units:  Both    English   Metric
« Previous Day
Next Day »
Daily Weekly Monthly Yearly Custom
  High: Low: Average:
Temperature: 91.9 °F /  33.3 °C 56.2 °F /  13.4 °C 75.2 °F /  24 °C
Dew Point: 67.3 °F /  19.6 °C 50.9 °F /  10.5 °C 60.7 °F /  15.9 °C
Humidity: 89 % 41 % 63 %
Wind Speed: 7.0 mph /  11.3 km/h - 2 mph /  3.2 km/h
Wind Gust: 13.0 mph /  20.9 km/h - -
Wind:- - SW
Pressure: 29.98 in /  1015.1 hPa 29.84 in /  1010.4 hPa -
Precipitation: 0.00 in /  0 mm    
Historical Graphs
 
 
Tabular Data for May 17, 2017
Time Temperature Dew Point Pressure Wind Wind Speed Wind Gust Humidity Rainfall Rate (Hourly)
00:04 61.3 °F /  16.3 °C 51.0 °F /  10.6 °C 29.94 in /  1013.8 hPa Calm     69 % 0.00 in /  0 mm
00:09 61.3 °F /  16.3 °C 51.4 °F /  10.8 °C 29.94 in /  1013.8 hPa Calm   1.2 mph /  1.9 km/h 70 % 0.00 in /  0 mm
00:14 61.3 °F /  16.3 °C 51.4 °F /  10.8 °C 29.94 in /  1013.8 hPa SW 0.5 mph /  0.8 km/h 1.2 mph /  1.9 km/h 70 % 0.00 in /  0 mm
00:19 61.2 °F /  16.2 °C 51.3 °F /  10.7 °C 29.94 in /  1013.8 hPa SW 0.9 mph /  1.4 km/h 1.2 mph /  1.9 km/h 70 % 0.00 in /  0 mm
00:24 61.2 °F /  16.2 °C 51.3 °F /  10.7 °C 29.94 in /  1013.8 hPa SW 0.3 mph /  0.5 km/h 2.0 mph /  3.2 km/h 70 % 0.00 in /  0 mm
00:29 61.2 °F /  16.2 °C 51.7 °F /  10.9 °C 29.94 in /  1013.8 hPa SW 1.3 mph /  2.1 km/h 2.3 mph /  3.7 km/h 71 % 0.00 in /  0 mm
00:34 61.1 °F /  16.2 °C 51.6 °F /  10.9 °C 29.94 in /  1013.8 hPa Calm   1.2 mph /  1.9 km/h 71 % 0.00 in /  0 mm
00:39 61.1 °F /  16.2 °C 51.6 °F /  10.9 °C 29.94 in /  1013.8 hPa SW 0.6 mph /  1 km/h 2.0 mph /  3.2 km/h 71 % 0.00 in /  0 mm
00:44 61.1 °F /  16.2 °C 51.6 °F /  10.9 °C 29.94 in /  1013.8 hPa Calm   2.3 mph /  3.7 km/h 71 % 0.00 in /  0 mm
00:49 61.1 °F /  16.2 °C 51.6 °F /  10.9 °C 29.94 in /  1013.8 hPa SW 0.5 mph /  0.8 km/h 1.2 mph /  1.9 km/h 71 % 0.00 in /  0 mm
00:54 61.0 °F /  16.1 °C 51.5 °F /  10.8 °C 29.94 in /  1013.8 hPa SW 0.2 mph /  0.3 km/h 1.2 mph /  1.9 km/h 71 % 0.00 in /  0 mm
00:59 60.9 °F /  16.1 °C 51.4 °F /  10.8 °C 29.94 in /  1013.8 hPa Calm   1.0 mph /  1.6 km/h 71 % 0.00 in /  0 mm
01:04 60.8 °F /  16 °C 51.0 °F /  10.6 °C 29.94 in /  1013.8 hPa SW 0.1 mph /  0.2 km/h 1.2 mph /  1.9 km/h 70 % 0.00 in /  0 mm
01:09 60.7 °F /  15.9 °C 51.2 °F /  10.7 °C 29.94 in /  1013.8 hPa SW 0.2 mph /  0.3 km/h 1.2 mph /  1.9 km/h 71 % 0.00 in /  0 mm
01:11 60.7 °F /  15.9 °C 51.2 °F /  10.7 °C 29.94 in /  1013.8 hPa SW 0.2 mph /  0.3 km/h 1.2 mph /  1.9 km/h 71 % 0.00 in /  0 mm
01:15 60.6 °F /  15.9 °C 51.1 °F /  10.6 °C 29.94 in /  1013.8 hPa SW 0.1 mph /  0.2 km/h 1.2 mph /  1.9 km/h 71 % 0.00 in /  0 mm
01:21 60.5 °F /  15.8 °C 51.1 °F /  10.6 °C 29.94 in /  1013.8 hPa Calm   1.0 mph /  1.6 km/h 71 % 0.00 in /  0 mm
01:26 60.5 °F /  15.8 °C 51.0 °F /  10.6 °C 29.94 in /  1013.8 hPa Calm     71 % 0.00 in /  0 mm
01:31 60.4 °F /  15.8 °C 51.0 °F /  10.6 °C 29.94 in /  1013.8 hPa Calm     71 % 0.00 in /  0 mm
01:36 60.4 °F /  15.8 °C 50.9 °F /  10.5 °C 29.94 in /  1013.8 hPa Calm     71 % 0.00 in /  0 mm
01:41 60.3 °F /  15.7 °C 51.2 °F /  10.7 °C 29.94 in /  1013.8 hPa Calm     72 % 0.00 in /  0 mm
01:46 60.2 °F /  15.7 °C 51.1 °F /  10.6 °C 29.94 in /  1013.8 hPa Calm     72 % 0.00 in /  0 mm
01:51 60.2 °F /  15.7 °C 51.1 °F /  10.6 °C 29.94 in /  1013.8 hPa Calm     72 % 0.00 in /  0 mm
01:56 60.1 °F /  15.6 °C 51.4 °F /  10.8 °C 29.94 in /  1013.8 hPa Calm     73 % 0.00 in /  0 mm
02:01 60.1 °F /  15.6 °C 51.8 °F /  11 °C 29.94 in /  1013.8 hPa Calm   1.2 mph /  1.9 km/h 74 % 0.00 in /  0 mm
02:06 60.0 °F /  15.6 °C 52.1 °F /  11.2 °C 29.94 in /  1013.8 hPa Calm   1.0 mph /  1.6 km/h 75 % 0.00 in /  0 mm
02:11 60.0 °F /  15.6 °C 52.1 °F /  11.2 °C 29.94 in /  1013.8 hPa Calm   1.0 mph /  1.6 km/h 75 % 0.00 in /  0 mm
02:16 59.9 °F /  15.5 °C 52.0 °F /  11.1 °C 29.94 in /  1013.8 hPa Calm   1.2 mph /  1.9 km/h 75 % 0.00 in /  0 mm
02:21 59.9 °F /  15.5 °C 52.0 °F /  11.1 °C 29.94 in /  1013.8 hPa Calm     75 % 0.00 in /  0 mm
02:25 59.8 °F /  15.4 °C 51.9 °F /  11.1 °C 29.94 in /  1013.8 hPa WSW 1.1 mph /  1.8 km/h 2.3 mph /  3.7 km/h 75 % 0.00 in /  0 mm
02:30 59.8 °F /  15.4 °C 52.2 °F /  11.2 °C 29.94 in /  1013.8 hPa WSW 1.0 mph /  1.6 km/h 2.0 mph /  3.2 km/h 76 % 0.00 in /  0 mm
02:35 59.8 °F /  15.4 °C 52.2 °F /  11.2 °C 29.94 in /  1013.8 hPa SW 0.9 mph /  1.4 km/h 3.5 mph /  5.6 km/h 76 % 0.00 in /  0 mm
02:41 59.9 °F /  15.5 °C 52.0 °F /  11.1 °C 29.94 in /  1013.8 hPa WSW 1.0 mph /  1.6 km/h 3.0 mph /  4.8 km/h 75 % 0.00 in /  0 mm
02:46 60.0 °F /  15.6 °C 52.1 °F /  11.2 °C 29.94 in /  1013.8 hPa Calm   2.0 mph /  3.2 km/h 75 % 0.00 in /  0 mm
02:51 60.1 °F /  15.6 °C 52.1 °F /  11.2 °C 29.94 in /  1013.8 hPa SSW 0.1 mph /  0.2 km/h 3.5 mph /  5.6 km/h 75 % 0.00 in /  0 mm
02:56 60.2 °F /  15.7 °C 52.3 °F /  11.3 °C 29.94 in /  1013.8 hPa SW 1.0 mph /  1.6 km/h 4.0 mph /  6.4 km/h 75 % 0.00 in /  0 mm
03:01 60.4 °F /  15.8 °C 52.4 °F /  11.3 °C 29.94 in /  1013.8 hPa WSW 0.1 mph /  0.2 km/h 1.2 mph /  1.9 km/h 75 % 0.00 in /  0 mm
03:06 60.5 °F /  15.8 °C 52.1 °F /  11.2 °C 29.94 in /  1013.8 hPa Calm   4.0 mph /  6.4 km/h 74 % 0.00 in /  0 mm
03:11 60.5 °F /  15.8 °C 52.2 °F /  11.2 °C 29.95 in /  1014.1 hPa Calm     74 % 0.00 in /  0 mm
03:16 60.6 °F /  15.9 °C 52.3 °F /  11.3 °C 29.95 in /  1014.1 hPa Calm   1.0 mph /  1.6 km/h 74 % 0.00 in /  0 mm
03:21 60.6 °F /  15.9 °C 51.9 °F /  11.1 °C 29.94 in /  1013.8 hPa Calm     73 % 0.00 in /  0 mm
03:26 60.7 °F /  15.9 °C 52.3 °F /  11.3 °C 29.95 in /  1014.1 hPa Calm     74 % 0.00 in /  0 mm
03:31 60.6 °F /  15.9 °C 52.3 °F /  11.3 °C 29.95 in /  1014.1 hPa Calm     74 % 0.00 in /  0 mm
03:36 60.6 °F /  15.9 °C 51.9 °F /  11.1 °C 29.95 in /  1014.1 hPa Calm     73 % 0.00 in /  0 mm
03:41 60.5 °F /  15.8 °C 51.8 °F /  11 °C 29.95 in /  1014.1 hPa Calm     73 % 0.00 in /  0 mm
03:46 60.4 °F /  15.8 °C 52.1 °F /  11.2 °C 29.95 in /  1014.1 hPa Calm     74 % 0.00 in /  0 mm
03:51 60.3 °F /  15.7 °C 52.0 °F /  11.1 °C 29.95 in /  1014.1 hPa Calm     74 % 0.00 in /  0 mm
03:56 60.2 °F /  15.7 °C 52.2 °F /  11.2 °C 29.95 in /  1014.1 hPa Calm     75 % 0.00 in /  0 mm
04:01 60.0 °F /  15.6 °C 52.1 °F /  11.2 °C 29.95 in /  1014.1 hPa Calm     75 % 0.00 in /  0 mm
04:06 59.9 °F /  15.5 °C 52.0 °F /  11.1 °C 29.95 in /  1014.1 hPa Calm     75 % 0.00 in /  0 mm
04:11 59.7 °F /  15.4 °C 52.1 °F /  11.2 °C 29.95 in /  1014.1 hPa Calm     76 % 0.00 in /  0 mm
04:16 59.6 °F /  15.3 °C 52.4 °F /  11.3 °C 29.96 in /  1014.4 hPa Calm     77 % 0.00 in /  0 mm
04:21 59.4 °F /  15.2 °C 52.5 °F /  11.4 °C 29.96 in /  1014.4 hPa Calm     78 % 0.00 in /  0 mm
04:26 59.2 °F /  15.1 °C 52.3 °F /  11.3 °C 29.96 in /  1014.4 hPa Calm     78 % 0.00 in /  0 mm
04:31 59.0 °F /  15 °C 52.1 °F /  11.2 °C 29.96 in /  1014.4 hPa Calm     78 % 0.00 in /  0 mm
04:36 58.7 °F /  14.8 °C 52.2 °F /  11.2 °C 29.96 in /  1014.4 hPa Calm     79 % 0.00 in /  0 mm
04:41 58.4 °F /  14.7 °C 52.3 °F /  11.3 °C 29.97 in /  1014.8 hPa Calm     80 % 0.00 in /  0 mm
04:46 58.2 °F /  14.6 °C 52.4 °F /  11.3 °C 29.96 in /  1014.4 hPa Calm     81 % 0.00 in /  0 mm
04:51 58.0 °F /  14.4 °C 52.2 °F /  11.2 °C 29.96 in /  1014.4 hPa Calm     81 % 0.00 in /  0 mm
04:56 57.8 °F /  14.3 °C 52.0 °F /  11.1 °C 29.96 in /  1014.4 hPa Calm     81 % 0.00 in /  0 mm
05:01 57.6 °F /  14.2 °C 51.8 °F /  11 °C 29.96 in /  1014.4 hPa Calm     81 % 0.00 in /  0 mm
05:06 57.4 °F /  14.1 °C 51.6 °F /  10.9 °C 29.96 in /  1014.4 hPa Calm     81 % 0.00 in /  0 mm
05:11 57.2 °F /  14 °C 51.4 °F /  10.8 °C 29.96 in /  1014.4 hPa Calm     81 % 0.00 in /  0 mm
05:16 57.0 °F /  13.9 °C 51.6 °F /  10.9 °C 29.96 in /  1014.4 hPa Calm     82 % 0.00 in /  0 mm
05:21 56.9 °F /  13.8 °C 51.5 °F /  10.8 °C 29.96 in /  1014.4 hPa Calm     82 % 0.00 in /  0 mm
05:26 56.8 °F /  13.8 °C 51.4 °F /  10.8 °C 29.96 in /  1014.4 hPa Calm     82 % 0.00 in /  0 mm
05:31 56.6 °F /  13.7 °C 51.2 °F /  10.7 °C 29.97 in /  1014.8 hPa Calm     82 % 0.00 in /  0 mm
05:36 56.6 °F /  13.7 °C 51.5 °F /  10.8 °C 29.96 in /  1014.4 hPa Calm     83 % 0.00 in /  0 mm
05:41 56.4 °F /  13.6 °C 51.3 °F /  10.7 °C 29.97 in /  1014.8 hPa Calm     83 % 0.00 in /  0 mm
05:46 56.4 °F /  13.6 °C 51.6 °F /  10.9 °C 29.97 in /  1014.8 hPa Calm     84 % 0.00 in /  0 mm
05:51 56.3 °F /  13.5 °C 51.8 °F /  11 °C 29.97 in /  1014.8 hPa Calm     85 % 0.00 in /  0 mm
05:57 56.2 °F /  13.4 °C 52.1 °F /  11.2 °C 29.97 in /  1014.8 hPa Calm     86 % 0.00 in /  0 mm
06:01 56.2 °F /  13.4 °C 52.1 °F /  11.2 °C 29.97 in /  1014.8 hPa Calm     86 % 0.00 in /  0 mm
06:07 56.2 °F /  13.4 °C 52.4 °F /  11.3 °C 29.97 in /  1014.8 hPa Calm     87 % 0.00 in /  0 mm
06:12 56.2 °F /  13.4 °C 52.4 °F /  11.3 °C 29.97 in /  1014.8 hPa Calm     87 % 0.00 in /  0 mm
06:17 56.3 °F /  13.5 °C 52.8 °F /  11.6 °C 29.97 in /  1014.8 hPa Calm     88 % 0.00 in /  0 mm
06:22 56.4 °F /  13.6 °C 52.9 °F /  11.6 °C 29.97 in /  1014.8 hPa Calm   2.3 mph /  3.7 km/h 88 % 0.00 in /  0 mm
06:27 56.6 °F /  13.7 °C 53.4 °F /  11.9 °C 29.97 in /  1014.8 hPa SW 0.8 mph /  1.3 km/h 3.0 mph /  4.8 km/h 89 % 0.00 in /  0 mm
06:32 57.0 °F /  13.9 °C 53.8 °F /  12.1 °C 29.97 in /  1014.8 hPa SSW 1.2 mph /  1.9 km/h 3.5 mph /  5.6 km/h 89 % 0.00 in /  0 mm
06:37 57.4 °F /  14.1 °C 54.2 °F /  12.3 °C 29.97 in /  1014.8 hPa SW 2.1 mph /  3.4 km/h 3.5 mph /  5.6 km/h 89 % 0.00 in /  0 mm
06:42 58.0 °F /  14.4 °C 54.5 °F /  12.5 °C 29.97 in /  1014.8 hPa WSW 1.4 mph /  2.3 km/h 3.5 mph /  5.6 km/h 88 % 0.00 in /  0 mm
06:47 58.6 °F /  14.8 °C 54.7 °F /  12.6 °C 29.97 in /  1014.8 hPa Calm   1.2 mph /  1.9 km/h 87 % 0.00 in /  0 mm
06:52 59.3 °F /  15.2 °C 55.1 °F /  12.8 °C 29.97 in /  1014.8 hPa SW 0.7 mph /  1.1 km/h 3.5 mph /  5.6 km/h 86 % 0.00 in /  0 mm
06:57 60.0 °F /  15.6 °C 55.5 °F /  13.1 °C 29.97 in /  1014.8 hPa SW 0.9 mph /  1.4 km/h 2.3 mph /  3.7 km/h 85 % 0.00 in /  0 mm
07:02 60.8 °F /  16 °C 55.6 °F /  13.1 °C 29.97 in /  1014.8 hPa WSW 0.7 mph /  1.1 km/h 3.5 mph /  5.6 km/h 83 % 0.00 in /  0 mm
07:07 61.6 °F /  16.4 °C 56.0 °F /  13.3 °C 29.97 in /  1014.8 hPa SW 0.6 mph /  1 km/h 3.5 mph /  5.6 km/h 82 % 0.00 in /  0 mm
07:12 62.5 °F /  16.9 °C 56.2 °F /  13.4 °C 29.97 in /  1014.8 hPa WSW 1.4 mph /  2.3 km/h 3.5 mph /  5.6 km/h 80 % 0.00 in /  0 mm
07:17 63.4 °F /  17.4 °C 56.8 °F /  13.8 °C 29.97 in /  1014.8 hPa WSW 1.0 mph /  1.6 km/h 3.5 mph /  5.6 km/h 79 % 0.00 in /  0 mm
07:22 64.2 °F /  17.9 °C 56.8 °F /  13.8 °C 29.97 in /  1014.8 hPa SW 0.8 mph /  1.3 km/h 3.5 mph /  5.6 km/h 77 % 0.00 in /  0 mm
07:27 65.0 °F /  18.3 °C 56.9 °F /  13.8 °C 29.97 in /  1014.8 hPa WSW 3.2 mph /  5.1 km/h 5.8 mph /  9.3 km/h 75 % 0.00 in /  0 mm
07:32 65.6 °F /  18.7 °C 57.1 °F /  13.9 °C 29.98 in /  1015.1 hPa West 2.5 mph /  4 km/h 4.6 mph /  7.4 km/h 74 % 0.00 in /  0 mm
07:37 66.3 °F /  19.1 °C 57.0 °F /  13.9 °C 29.97 in /  1014.8 hPa SW 2.0 mph /  3.2 km/h 5.8 mph /  9.3 km/h 72 % 0.00 in /  0 mm
07:42 66.8 °F /  19.3 °C 57.5 °F /  14.2 °C 29.97 in /  1014.8 hPa SSW 1.0 mph /  1.6 km/h 3.5 mph /  5.6 km/h 72 % 0.00 in /  0 mm
07:47 67.2 °F /  19.6 °C 57.1 °F /  13.9 °C 29.97 in /  1014.8 hPa WSW 2.8 mph /  4.5 km/h 5.0 mph /  8 km/h 70 % 0.00 in /  0 mm
07:52 67.6 °F /  19.8 °C 57.5 °F /  14.2 °C 29.97 in /  1014.8 hPa SW 2.3 mph /  3.7 km/h 3.5 mph /  5.6 km/h 70 % 0.00 in /  0 mm
07:57 67.9 °F /  19.9 °C 57.4 °F /  14.1 °C 29.97 in /  1014.8 hPa SSW 2.8 mph /  4.5 km/h 4.0 mph /  6.4 km/h 69 % 0.00 in /  0 mm
08:02 68.4 °F /  20.2 °C 57.4 °F /  14.1 °C 29.97 in /  1014.8 hPa SSW 2.7 mph /  4.3 km/h 6.9 mph /  11.1 km/h 68 % 0.00 in /  0 mm
08:07 68.8 °F /  20.4 °C 57.4 °F /  14.1 °C 29.97 in /  1014.8 hPa SW 1.9 mph /  3.1 km/h 5.8 mph /  9.3 km/h 67 % 0.00 in /  0 mm
08:12 69.3 °F /  20.7 °C 57.5 °F /  14.2 °C 29.97 in /  1014.8 hPa WSW 3.2 mph /  5.1 km/h 11.5 mph /  18.5 km/h 66 % 0.00 in /  0 mm
08:18 69.8 °F /  21 °C 57.9 °F /  14.4 °C 29.97 in /  1014.8 hPa WSW 1.1 mph /  1.8 km/h 3.5 mph /  5.6 km/h 66 % 0.00 in /  0 mm
08:23 70.3 °F /  21.3 °C 58.4 °F /  14.7 °C 29.97 in /  1014.8 hPa Calm   2.3 mph /  3.7 km/h 66 % 0.00 in /  0 mm
08:28 70.8 °F /  21.6 °C 58.9 °F /  14.9 °C 29.97 in /  1014.8 hPa West 0.9 mph /  1.4 km/h 4.6 mph /  7.4 km/h 66 % 0.00 in /  0 mm
08:33 71.3 °F /  21.8 °C 58.5 °F /  14.7 °C 29.97 in /  1014.8 hPa SW 2.9 mph /  4.7 km/h 6.9 mph /  11.1 km/h 64 % 0.00 in /  0 mm
08:38 71.7 °F /  22.1 °C 58.9 °F /  14.9 °C 29.97 in /  1014.8 hPa SW 4.5 mph /  7.2 km/h 5.8 mph /  9.3 km/h 64 % 0.00 in /  0 mm
08:43 72.1 °F /  22.3 °C 58.4 °F /  14.7 °C 29.98 in /  1015.1 hPa SSW 4.7 mph /  7.6 km/h 8.1 mph /  13 km/h 62 % 0.00 in /  0 mm
08:48 72.4 °F /  22.4 °C 59.1 °F /  15.1 °C 29.97 in /  1014.8 hPa West 3.0 mph /  4.8 km/h 8.1 mph /  13 km/h 63 % 0.00 in /  0 mm
08:53 72.7 °F /  22.6 °C 59.4 °F /  15.2 °C 29.97 in /  1014.8 hPa West 3.5 mph /  5.6 km/h 10.4 mph /  16.7 km/h 63 % 0.00 in /  0 mm
08:58 73.1 °F /  22.8 °C 59.8 °F /  15.4 °C 29.97 in /  1014.8 hPa WSW 0.9 mph /  1.4 km/h 3.5 mph /  5.6 km/h 63 % 0.00 in /  0 mm
09:03 73.5 °F /  23.1 °C 59.2 °F /  15.1 °C 29.97 in /  1014.8 hPa SSW 4.0 mph /  6.4 km/h 6.9 mph /  11.1 km/h 61 % 0.00 in /  0 mm
09:08 73.9 °F /  23.3 °C 59.1 °F /  15.1 °C 29.97 in /  1014.8 hPa WSW 3.6 mph /  5.8 km/h 4.6 mph /  7.4 km/h 60 % 0.00 in /  0 mm
09:13 74.3 °F /  23.5 °C 59.5 °F /  15.3 °C 29.97 in /  1014.8 hPa WSW 3.0 mph /  4.8 km/h 5.8 mph /  9.3 km/h 60 % 0.00 in /  0 mm
09:18 74.7 °F /  23.7 °C 59.4 °F /  15.2 °C 29.97 in /  1014.8 hPa SSW 1.1 mph /  1.8 km/h 5.8 mph /  9.3 km/h 59 % 0.00 in /  0 mm
09:23 75.1 °F /  23.9 °C 59.3 °F /  15.2 °C 29.96 in /  1014.4 hPa SSW 4.1 mph /  6.6 km/h 6.9 mph /  11.1 km/h 58 % 0.00 in /  0 mm
09:28 75.6 °F /  24.2 °C 60.3 °F /  15.7 °C 29.97 in /  1014.8 hPa SW 4.4 mph /  7.1 km/h 10.4 mph /  16.7 km/h 59 % 0.00 in /  0 mm
09:33 76.1 °F /  24.5 °C 60.2 °F /  15.7 °C 29.97 in /  1014.8 hPa SSW 2.8 mph /  4.5 km/h 7.0 mph /  11.3 km/h 58 % 0.00 in /  0 mm
09:38 76.6 °F /  24.8 °C 60.2 °F /  15.7 °C 29.96 in /  1014.4 hPa WNW 1.2 mph /  1.9 km/h 11.5 mph /  18.5 km/h 57 % 0.00 in /  0 mm
09:43 77.1 °F /  25.1 °C 60.2 °F /  15.7 °C 29.96 in /  1014.4 hPa SW 3.5 mph /  5.6 km/h 10.4 mph /  16.7 km/h 56 % 0.00 in /  0 mm
09:48 77.7 °F /  25.4 °C 61.7 °F /  16.5 °C 29.96 in /  1014.4 hPa SW 1.3 mph /  2.1 km/h 4.0 mph /  6.4 km/h 58 % 0.00 in /  0 mm
09:53 78.3 °F /  25.7 °C 61.8 °F /  16.6 °C 29.96 in /  1014.4 hPa West 1.5 mph /  2.4 km/h 3.5 mph /  5.6 km/h 57 % 0.00 in /  0 mm
09:58 79.0 °F /  26.1 °C 62.0 °F /  16.7 °C 29.96 in /  1014.4 hPa NW 0.8 mph /  1.3 km/h 2.3 mph /  3.7 km/h 56 % 0.00 in /  0 mm
10:03 79.4 °F /  26.3 °C 61.8 °F /  16.6 °C 29.96 in /  1014.4 hPa WNW 2.3 mph /  3.7 km/h 4.0 mph /  6.4 km/h 55 % 0.00 in /  0 mm
10:08 79.8 °F /  26.6 °C 62.2 °F /  16.8 °C 29.95 in /  1014.1 hPa SW 2.0 mph /  3.2 km/h 5.0 mph /  8 km/h 55 % 0.00 in /  0 mm
10:13 80.4 °F /  26.9 °C 63.8 °F /  17.7 °C 29.95 in /  1014.1 hPa WSW 3.3 mph /  5.3 km/h 4.0 mph /  6.4 km/h 57 % 0.00 in /  0 mm
10:18 81.0 °F /  27.2 °C 62.3 °F /  16.8 °C 29.95 in /  1014.1 hPa West 4.6 mph /  7.4 km/h 5.8 mph /  9.3 km/h 53 % 0.00 in /  0 mm
10:24 81.4 °F /  27.4 °C 62.6 °F /  17 °C 29.95 in /  1014.1 hPa West 6.5 mph /  10.5 km/h 8.0 mph /  12.9 km/h 53 % 0.00 in /  0 mm
10:29 81.9 °F /  27.7 °C 63.6 °F /  17.6 °C 29.95 in /  1014.1 hPa WSW 1.8 mph /  2.9 km/h 4.0 mph /  6.4 km/h 54 % 0.00 in /  0 mm
10:34 82.1 °F /  27.8 °C 62.7 °F /  17.1 °C 29.95 in /  1014.1 hPa WSW 2.6 mph /  4.2 km/h 3.5 mph /  5.6 km/h 52 % 0.00 in /  0 mm
10:39 82.7 °F /  28.2 °C 62.7 °F /  17.1 °C 29.94 in /  1013.8 hPa SW 5.9 mph /  9.5 km/h 6.9 mph /  11.1 km/h 51 % 0.00 in /  0 mm
10:44 83.1 °F /  28.4 °C 63.1 °F /  17.3 °C 29.94 in /  1013.8 hPa SW 2.0 mph /  3.2 km/h 5.0 mph /  8 km/h 51 % 0.00 in /  0 mm
10:49 83.5 °F /  28.6 °C 63.5 °F /  17.5 °C 29.94 in /  1013.8 hPa SW 3.5 mph /  5.6 km/h 6.0 mph /  9.7 km/h 51 % 0.00 in /  0 mm
10:54 84.1 °F /  28.9 °C 63.5 °F /  17.5 °C 29.94 in /  1013.8 hPa WNW 1.4 mph /  2.3 km/h 3.5 mph /  5.6 km/h 50 % 0.00 in /  0 mm
10:59 84.5 °F /  29.2 °C 64.9 °F /  18.3 °C 29.94 in /  1013.8 hPa West 2.9 mph /  4.7 km/h 5.8 mph /  9.3 km/h 52 % 0.00 in /  0 mm
11:04 84.9 °F /  29.4 °C 63.0 °F /  17.2 °C 29.94 in /  1013.8 hPa West 4.2 mph /  6.8 km/h 8.1 mph /  13 km/h 48 % 0.00 in /  0 mm
11:09 85.3 °F /  29.6 °C 62.8 °F /  17.1 °C 29.94 in /  1013.8 hPa SSW 2.7 mph /  4.3 km/h 5.8 mph /  9.3 km/h 47 % 0.00 in /  0 mm
11:14 85.7 °F /  29.8 °C 63.8 °F /  17.7 °C 29.93 in /  1013.4 hPa West 1.5 mph /  2.4 km/h 8.1 mph /  13 km/h 48 % 0.00 in /  0 mm
11:19 86.6 °F /  30.3 °C 65.2 °F /  18.4 °C 29.93 in /  1013.4 hPa SSW 1.6 mph /  2.6 km/h 3.5 mph /  5.6 km/h 49 % 0.00 in /  0 mm
11:24 87.1 °F /  30.6 °C 63.2 °F /  17.3 °C 29.94 in /  1013.8 hPa WSW 3.3 mph /  5.3 km/h 5.8 mph /  9.3 km/h 45 % 0.00 in /  0 mm
11:29 87.4 °F /  30.8 °C 64.1 °F /  17.8 °C 29.93 in /  1013.4 hPa SW 3.6 mph /  5.8 km/h 7.0 mph /  11.3 km/h 46 % 0.00 in /  0 mm
11:34 87.7 °F /  30.9 °C 62.4 °F /  16.9 °C 29.93 in /  1013.4 hPa WSW 5.2 mph /  8.4 km/h 6.9 mph /  11.1 km/h 43 % 0.00 in /  0 mm
11:39 88.0 °F /  31.1 °C 64.6 °F /  18.1 °C 29.94 in /  1013.8 hPa North 3.5 mph /  5.6 km/h 8.1 mph /  13 km/h 46 % 0.00 in /  0 mm
11:44 88.2 °F /  31.2 °C 64.2 °F /  17.9 °C 29.93 in /  1013.4 hPa WNW 5.0 mph /  8 km/h 9.2 mph /  14.8 km/h 45 % 0.00 in /  0 mm
11:49 88.5 °F /  31.4 °C 63.8 °F /  17.7 °C 29.93 in /  1013.4 hPa SW 3.3 mph /  5.3 km/h 6.9 mph /  11.1 km/h 44 % 0.00 in /  0 mm
11:54 88.7 °F /  31.5 °C 64.0 °F /  17.8 °C 29.92 in /  1013.1 hPa WSW 5.0 mph /  8 km/h 8.1 mph /  13 km/h 44 % 0.00 in /  0 mm
11:59 88.9 °F /  31.6 °C 65.4 °F /  18.6 °C 29.92 in /  1013.1 hPa SW 4.1 mph /  6.6 km/h 8.1 mph /  13 km/h 46 % 0.00 in /  0 mm
12:04 89.0 °F /  31.7 °C 62.9 °F /  17.2 °C 29.92 in /  1013.1 hPa SW 5.9 mph /  9.5 km/h 11.5 mph /  18.5 km/h 42 % 0.00 in /  0 mm
12:09 89.1 °F /  31.7 °C 65.0 °F /  18.3 °C 29.92 in /  1013.1 hPa SSW 1.0 mph /  1.6 km/h 3.5 mph /  5.6 km/h 45 % 0.00 in /  0 mm
12:14 89.6 °F /  32 °C 66.7 °F /  19.3 °C 29.92 in /  1013.1 hPa SW 3.8 mph /  6.1 km/h 7.0 mph /  11.3 km/h 47 % 0.00 in /  0 mm
12:17 89.9 °F /  32.2 °C 65.1 °F /  18.4 °C 29.91 in /  1012.8 hPa West 1.4 mph /  2.3 km/h 8.1 mph /  13 km/h 44 % 0.00 in /  0 mm
12:22 90.1 °F /  32.3 °C 63.9 °F /  17.7 °C 29.91 in /  1012.8 hPa WSW 3.6 mph /  5.8 km/h 6.9 mph /  11.1 km/h 42 % 0.00 in /  0 mm
12:27 90.3 °F /  32.4 °C 64.8 °F /  18.2 °C 29.91 in /  1012.8 hPa SW 5.0 mph /  8 km/h 6.9 mph /  11.1 km/h 43 % 0.00 in /  0 mm
12:32 90.6 °F /  32.6 °C 66.3 °F /  19.1 °C 29.91 in /  1012.8 hPa SSW 4.3 mph /  6.9 km/h 7.0 mph /  11.3 km/h 45 % 0.00 in /  0 mm
12:37 90.7 °F /  32.6 °C 65.1 °F /  18.4 °C 29.91 in /  1012.8 hPa SW 4.0 mph /  6.4 km/h 6.9 mph /  11.1 km/h 43 % 0.00 in /  0 mm
12:42 90.8 °F /  32.7 °C 65.9 °F /  18.8 °C 29.91 in /  1012.8 hPa SW 2.6 mph /  4.2 km/h 9.0 mph /  14.5 km/h 44 % 0.00 in /  0 mm
12:47 91.1 °F /  32.8 °C 66.2 °F /  19 °C 29.90 in /  1012.4 hPa SW 5.1 mph /  8.2 km/h 9.2 mph /  14.8 km/h 44 % 0.00 in /  0 mm
12:52 91.2 °F /  32.9 °C 64.9 °F /  18.3 °C 29.90 in /  1012.4 hPa SE 0.9 mph /  1.4 km/h 8.1 mph /  13 km/h 42 % 0.00 in /  0 mm
12:57 91.5 °F /  33.1 °C 67.2 °F /  19.6 °C 29.90 in /  1012.4 hPa SSW 3.3 mph /  5.3 km/h 5.8 mph /  9.3 km/h 45 % 0.00 in /  0 mm
13:02 91.6 °F /  33.1 °C 64.6 °F /  18.1 °C 29.90 in /  1012.4 hPa SW 5.8 mph /  9.3 km/h 9.0 mph /  14.5 km/h 41 % 0.00 in /  0 mm
13:07 91.4 °F /  33 °C 64.4 °F /  18 °C 29.90 in /  1012.4 hPa SW 4.6 mph /  7.4 km/h 6.9 mph /  11.1 km/h 41 % 0.00 in /  0 mm
13:12 91.5 °F /  33.1 °C 65.8 °F /  18.8 °C 29.90 in /  1012.4 hPa SW 3.0 mph /  4.8 km/h 4.0 mph /  6.4 km/h 43 % 0.00 in /  0 mm
13:17 91.6 °F /  33.1 °C 66.6 °F /  19.2 °C 29.90 in /  1012.4 hPa SW 4.3 mph /  6.9 km/h 13.0 mph /  20.9 km/h 44 % 0.00 in /  0 mm
13:22 91.6 °F /  33.1 °C 65.9 °F /  18.8 °C 29.90 in /  1012.4 hPa SSW 5.4 mph /  8.7 km/h 6.0 mph /  9.7 km/h 43 % 0.00 in /  0 mm
13:27 91.7 °F /  33.2 °C 66.7 °F /  19.3 °C 29.90 in /  1012.4 hPa SSW 3.2 mph /  5.1 km/h 8.1 mph /  13 km/h 44 % 0.00 in /  0 mm
13:32 91.8 °F /  33.2 °C 66.1 °F /  18.9 °C 29.90 in /  1012.4 hPa SSW 5.5 mph /  8.9 km/h 7.0 mph /  11.3 km/h 43 % 0.00 in /  0 mm
13:37 91.8 °F /  33.2 °C 65.4 °F /  18.6 °C 29.89 in /  1012.1 hPa SW 3.0 mph /  4.8 km/h 9.0 mph /  14.5 km/h 42 % 0.00 in /  0 mm
13:42 91.9 °F /  33.3 °C 64.8 °F /  18.2 °C 29.89 in /  1012.1 hPa South 3.6 mph /  5.8 km/h 6.9 mph /  11.1 km/h 41 % 0.00 in /  0 mm
13:47 91.6 °F /  33.1 °C 66.6 °F /  19.2 °C 29.89 in /  1012.1 hPa South 3.7 mph /  6 km/h 5.8 mph /  9.3 km/h 44 % 0.00 in /  0 mm
13:52 91.6 °F /  33.1 °C 65.9 °F /  18.8 °C 29.89 in /  1012.1 hPa South 2.1 mph /  3.4 km/h 6.9 mph /  11.1 km/h 43 % 0.00 in /  0 mm
13:57 91.7 °F /  33.2 °C 66.0 °F /  18.9 °C 29.89 in /  1012.1 hPa SSW 1.2 mph /  1.9 km/h 3.5 mph /  5.6 km/h 43 % 0.00 in /  0 mm
14:02 91.6 °F /  33.1 °C 65.9 °F /  18.8 °C 29.89 in /  1012.1 hPa South 5.1 mph /  8.2 km/h 6.9 mph /  11.1 km/h 43 % 0.00 in /  0 mm
14:07 91.7 °F /  33.2 °C 66.0 °F /  18.9 °C 29.89 in /  1012.1 hPa SW 3.2 mph /  5.1 km/h 6.9 mph /  11.1 km/h 43 % 0.00 in /  0 mm
14:12 91.6 °F /  33.1 °C 65.3 °F /  18.5 °C 29.88 in /  1011.7 hPa SSW 3.2 mph /  5.1 km/h 3.5 mph /  5.6 km/h 42 % 0.00 in /  0 mm
14:17 91.6 °F /  33.1 °C 65.3 °F /  18.5 °C 29.88 in /  1011.7 hPa SSW 4.5 mph /  7.2 km/h 6.9 mph /  11.1 km/h 42 % 0.00 in /  0 mm
14:22 91.6 °F /  33.1 °C 65.9 °F /  18.8 °C 29.88 in /  1011.7 hPa SSW 4.5 mph /  7.2 km/h 7.0 mph /  11.3 km/h 43 % 0.00 in /  0 mm
14:28 91.5 °F /  33.1 °C 66.5 °F /  19.2 °C 29.88 in /  1011.7 hPa SSE 3.6 mph /  5.8 km/h 8.1 mph /  13 km/h 44 % 0.00 in /  0 mm
14:33 91.3 °F /  32.9 °C 66.3 °F /  19.1 °C 29.88 in /  1011.7 hPa SW 3.2 mph /  5.1 km/h 3.5 mph /  5.6 km/h 44 % 0.00 in /  0 mm
14:38 91.4 °F /  33 °C 66.4 °F /  19.1 °C 29.88 in /  1011.7 hPa WSW 2.5 mph /  4 km/h 3.5 mph /  5.6 km/h 44 % 0.00 in /  0 mm
14:43 91.3 °F /  32.9 °C 67.0 °F /  19.4 °C 29.87 in /  1011.4 hPa SSW 1.1 mph /  1.8 km/h 4.6 mph /  7.4 km/h 45 % 0.00 in /  0 mm
14:48 91.4 °F /  33 °C 66.4 °F /  19.1 °C 29.88 in /  1011.7 hPa SSW 5.9 mph /  9.5 km/h 6.9 mph /  11.1 km/h 44 % 0.00 in /  0 mm
14:53 91.5 °F /  33.1 °C 66.5 °F /  19.2 °C 29.88 in /  1011.7 hPa SSE 3.7 mph /  6 km/h 9.2 mph /  14.8 km/h 44 % 0.00 in /  0 mm
14:58 91.5 °F /  33.1 °C 67.2 °F /  19.6 °C 29.87 in /  1011.4 hPa South 1.2 mph /  1.9 km/h 3.5 mph /  5.6 km/h 45 % 0.00 in /  0 mm
15:03 91.6 °F /  33.1 °C 67.3 °F /  19.6 °C 29.86 in /  1011.1 hPa SSW 0.4 mph /  0.6 km/h 4.6 mph /  7.4 km/h 45 % 0.00 in /  0 mm
15:08 91.7 °F /  33.2 °C 67.3 °F /  19.6 °C 29.87 in /  1011.4 hPa SSW 4.6 mph /  7.4 km/h 7.0 mph /  11.3 km/h 45 % 0.00 in /  0 mm
15:10 91.7 °F /  33.2 °C 66.7 °F /  19.3 °C 29.86 in /  1011.1 hPa SSW 2.5 mph /  4 km/h 6.9 mph /  11.1 km/h 44 % 0.00 in /  0 mm
15:15 91.7 °F /  33.2 °C 66.0 °F /  18.9 °C 29.86 in /  1011.1 hPa South 5.5 mph /  8.9 km/h 9.2 mph /  14.8 km/h 43 % 0.00 in /  0 mm
15:20 91.5 °F /  33.1 °C 65.8 °F /  18.8 °C 29.86 in /  1011.1 hPa South 6.5 mph /  10.5 km/h 11.5 mph /  18.5 km/h 43 % 0.00 in /  0 mm
15:25 91.3 °F /  32.9 °C 67.0 °F /  19.4 °C 29.86 in /  1011.1 hPa SW 4.0 mph /  6.4 km/h 8.1 mph /  13 km/h 45 % 0.00 in /  0 mm
15:30 91.1 °F /  32.8 °C 65.5 °F /  18.6 °C 29.85 in /  1010.7 hPa SE 2.2 mph /  3.5 km/h 5.8 mph /  9.3 km/h 43 % 0.00 in /  0 mm
15:35 91.0 °F /  32.8 °C 67.3 °F /  19.6 °C 29.85 in /  1010.7 hPa SSW 1.8 mph /  2.9 km/h 4.0 mph /  6.4 km/h 46 % 0.00 in /  0 mm
15:40 90.8 °F /  32.7 °C 65.9 °F /  18.8 °C 29.86 in /  1011.1 hPa SSW 1.8 mph /  2.9 km/h 3.5 mph /  5.6 km/h 44 % 0.00 in /  0 mm
15:45 90.5 °F /  32.5 °C 66.3 °F /  19.1 °C 29.85 in /  1010.7 hPa SSW 4.4 mph /  7.1 km/h 5.8 mph /  9.3 km/h 45 % 0.00 in /  0 mm
15:50 90.2 °F /  32.3 °C 66.6 °F /  19.2 °C 29.85 in /  1010.7 hPa SW 3.9 mph /  6.3 km/h 5.8 mph /  9.3 km/h 46 % 0.00 in /  0 mm
15:55 90.1 °F /  32.3 °C 66.5 °F /  19.2 °C 29.86 in /  1011.1 hPa SSW 7.0 mph /  11.3 km/h 13.0 mph /  20.9 km/h 46 % 0.00 in /  0 mm
16:00 90.1 °F /  32.3 °C 66.5 °F /  19.2 °C 29.86 in /  1011.1 hPa SSW 3.1 mph /  5 km/h 6.9 mph /  11.1 km/h 46 % 0.00 in /  0 mm
16:05 90.0 °F /  32.2 °C 66.4 °F /  19.1 °C 29.86 in /  1011.1 hPa SW 5.0 mph /  8 km/h 7.0 mph /  11.3 km/h 46 % 0.00 in /  0 mm
16:10 89.9 °F /  32.2 °C 66.3 °F /  19.1 °C 29.85 in /  1010.7 hPa South 3.8 mph /  6.1 km/h 11.5 mph /  18.5 km/h 46 % 0.00 in /  0 mm
16:15 89.8 °F /  32.1 °C 66.3 °F /  19.1 °C 29.85 in /  1010.7 hPa SSW 5.6 mph /  9 km/h 9.2 mph /  14.8 km/h 46 % 0.00 in /  0 mm
16:20 89.6 °F /  32 °C 66.7 °F /  19.3 °C 29.85 in /  1010.7 hPa SSE 3.3 mph /  5.3 km/h 5.8 mph /  9.3 km/h 47 % 0.00 in /  0 mm
16:25 89.3 °F /  31.8 °C 66.4 °F /  19.1 °C 29.85 in /  1010.7 hPa SSW 2.6 mph /  4.2 km/h 5.0 mph /  8 km/h 47 % 0.00 in /  0 mm
16:30 89.1 °F /  31.7 °C 66.2 °F /  19 °C 29.85 in /  1010.7 hPa South 6.8 mph /  10.9 km/h 8.1 mph /  13 km/h 47 % 0.00 in /  0 mm
16:35 89.0 °F /  31.7 °C 66.8 °F /  19.3 °C 29.85 in /  1010.7 hPa SW 1.4 mph /  2.3 km/h 3.5 mph /  5.6 km/h 48 % 0.00 in /  0 mm
16:40 89.0 °F /  31.7 °C 66.2 °F /  19 °C 29.85 in /  1010.7 hPa SSW 4.6 mph /  7.4 km/h 8.1 mph /  13 km/h 47 % 0.00 in /  0 mm
16:45 88.8 °F /  31.6 °C 66.6 °F /  19.2 °C 29.85 in /  1010.7 hPa South 0.4 mph /  0.6 km/h 2.3 mph /  3.7 km/h 48 % 0.00 in /  0 mm
16:50 88.7 °F /  31.5 °C 67.1 °F /  19.5 °C 29.85 in /  1010.7 hPa South 2.1 mph /  3.4 km/h 6.9 mph /  11.1 km/h 49 % 0.00 in /  0 mm
16:55 88.6 °F /  31.4 °C 67.0 °F /  19.4 °C 29.85 in /  1010.7 hPa SE 2.7 mph /  4.3 km/h 5.8 mph /  9.3 km/h 49 % 0.00 in /  0 mm
17:00 88.2 °F /  31.2 °C 66.0 °F /  18.9 °C 29.85 in /  1010.7 hPa South 3.5 mph /  5.6 km/h 11.5 mph /  18.5 km/h 48 % 0.00 in /  0 mm
17:05 88.1 °F /  31.2 °C 66.5 °F /  19.2 °C 29.85 in /  1010.7 hPa SW 1.2 mph /  1.9 km/h 3.5 mph /  5.6 km/h 49 % 0.00 in /  0 mm
17:10 87.6 °F /  30.9 °C 66.7 °F /  19.3 °C 29.85 in /  1010.7 hPa SSE 2.8 mph /  4.5 km/h 6.9 mph /  11.1 km/h 50 % 0.00 in /  0 mm
17:15 87.3 °F /  30.7 °C 66.4 °F /  19.1 °C 29.85 in /  1010.7 hPa SSW 2.7 mph /  4.3 km/h 4.6 mph /  7.4 km/h 50 % 0.00 in /  0 mm
17:20 87.0 °F /  30.6 °C 66.7 °F /  19.3 °C 29.85 in /  1010.7 hPa SE 3.9 mph /  6.3 km/h 8.1 mph /  13 km/h 51 % 0.00 in /  0 mm
17:25 86.7 °F /  30.4 °C 66.4 °F /  19.1 °C 29.85 in /  1010.7 hPa SSW 1.2 mph /  1.9 km/h 5.0 mph /  8 km/h 51 % 0.00 in /  0 mm
17:31 86.5 °F /  30.3 °C 66.2 °F /  19 °C 29.85 in /  1010.7 hPa SSW 1.0 mph /  1.6 km/h 6.0 mph /  9.7 km/h 51 % 0.00 in /  0 mm
17:36 86.3 °F /  30.2 °C 66.0 °F /  18.9 °C 29.85 in /  1010.7 hPa SSW 2.0 mph /  3.2 km/h 6.0 mph /  9.7 km/h 51 % 0.00 in /  0 mm
17:41 86.0 °F /  30 °C 66.4 °F /  19.1 °C 29.85 in /  1010.7 hPa South 2.0 mph /  3.2 km/h 6.0 mph /  9.7 km/h 52 % 0.00 in /  0 mm
17:46 85.7 °F /  29.8 °C 66.1 °F /  18.9 °C 29.85 in /  1010.7 hPa SSW 6.0 mph /  9.7 km/h 8.0 mph /  12.9 km/h 52 % 0.00 in /  0 mm
17:51 85.4 °F /  29.7 °C 65.8 °F /  18.8 °C 29.85 in /  1010.7 hPa SSW 5.0 mph /  8 km/h 8.0 mph /  12.9 km/h 52 % 0.00 in /  0 mm
17:56 85.0 °F /  29.4 °C 66.0 °F /  18.9 °C 29.85 in /  1010.7 hPa SSW 5.0 mph /  8 km/h 12.0 mph /  19.3 km/h 53 % 0.00 in /  0 mm
18:01 84.7 °F /  29.3 °C 65.7 °F /  18.7 °C 29.85 in /  1010.7 hPa SSW 4.4 mph /  7.1 km/h 6.9 mph /  11.1 km/h 53 % 0.00 in /  0 mm
18:05 84.3 °F /  29.1 °C 65.8 °F /  18.8 °C 29.85 in /  1010.7 hPa SSW 3.2 mph /  5.1 km/h 6.9 mph /  11.1 km/h 54 % 0.00 in /  0 mm
18:10 83.9 °F /  28.8 °C 66.0 °F /  18.9 °C 29.85 in /  1010.7 hPa SSW 3.8 mph /  6.1 km/h 4.0 mph /  6.4 km/h 55 % 0.00 in /  0 mm
18:11 83.9 °F /  28.8 °C 66.0 °F /  18.9 °C 29.84 in /  1010.4 hPa SSW 3.6 mph /  5.8 km/h 9.2 mph /  14.8 km/h 55 % 0.00 in /  0 mm
18:16 83.5 °F /  28.6 °C 65.6 °F /  18.7 °C 29.84 in /  1010.4 hPa SW 4.8 mph /  7.7 km/h 8.1 mph /  13 km/h 55 % 0.00 in /  0 mm
18:21 83.2 °F /  28.4 °C 65.9 °F /  18.8 °C 29.84 in /  1010.4 hPa South 2.7 mph /  4.3 km/h 6.9 mph /  11.1 km/h 56 % 0.00 in /  0 mm
18:26 82.9 °F /  28.3 °C 65.6 °F /  18.7 °C 29.84 in /  1010.4 hPa South 2.6 mph /  4.2 km/h 4.6 mph /  7.4 km/h 56 % 0.00 in /  0 mm
18:31 82.7 °F /  28.2 °C 65.9 °F /  18.8 °C 29.84 in /  1010.4 hPa SW 3.5 mph /  5.6 km/h 5.8 mph /  9.3 km/h 57 % 0.00 in /  0 mm
18:36 82.5 °F /  28.1 °C 65.7 °F /  18.7 °C 29.84 in /  1010.4 hPa SSW 3.1 mph /  5 km/h 5.8 mph /  9.3 km/h 57 % 0.00 in /  0 mm
18:41 82.3 °F /  27.9 °C 65.5 °F /  18.6 °C 29.84 in /  1010.4 hPa South 4.2 mph /  6.8 km/h 6.9 mph /  11.1 km/h 57 % 0.00 in /  0 mm
18:43 82.3 °F /  27.9 °C 65.5 °F /  18.6 °C 29.84 in /  1010.4 hPa South 1.7 mph /  2.7 km/h 6.9 mph /  11.1 km/h 57 % 0.00 in /  0 mm
18:46 82.2 °F /  27.9 °C 66.0 °F /  18.9 °C 29.84 in /  1010.4 hPa SSW 3.8 mph /  6.1 km/h 6.0 mph /  9.7 km/h 58 % 0.00 in /  0 mm
18:47 82.1 °F /  27.8 °C 65.9 °F /  18.8 °C 29.84 in /  1010.4 hPa SSW 4.6 mph /  7.4 km/h 8.1 mph /  13 km/h 58 % 0.00 in /  0 mm
18:52 81.9 °F /  27.7 °C 65.7 °F /  18.7 °C 29.84 in /  1010.4 hPa SW 1.4 mph /  2.3 km/h 3.5 mph /  5.6 km/h 58 % 0.00 in /  0 mm
18:57 81.7 °F /  27.6 °C 66.0 °F /  18.9 °C 29.85 in /  1010.7 hPa South 1.5 mph /  2.4 km/h 3.5 mph /  5.6 km/h 59 % 0.00 in /  0 mm
19:02 81.4 °F /  27.4 °C 65.7 °F /  18.7 °C 29.84 in /  1010.4 hPa SSW 2.7 mph /  4.3 km/h 6.9 mph /  11.1 km/h 59 % 0.00 in /  0 mm
19:07 81.2 °F /  27.3 °C 65.5 °F /  18.6 °C 29.85 in /  1010.7 hPa SSW 1.9 mph /  3.1 km/h 3.5 mph /  5.6 km/h 59 % 0.00 in /  0 mm
19:12 80.9 °F /  27.2 °C 65.7 °F /  18.7 °C 29.85 in /  1010.7 hPa SSE 1.4 mph /  2.3 km/h 3.5 mph /  5.6 km/h 60 % 0.00 in /  0 mm
19:17 80.7 °F /  27.1 °C 66.0 °F /  18.9 °C 29.85 in /  1010.7 hPa SSE 1.0 mph /  1.6 km/h 3.5 mph /  5.6 km/h 61 % 0.00 in /  0 mm
19:22 80.4 °F /  26.9 °C 65.7 °F /  18.7 °C 29.85 in /  1010.7 hPa SE 0.8 mph /  1.3 km/h 2.3 mph /  3.7 km/h 61 % 0.00 in /  0 mm
19:27 80.2 °F /  26.8 °C 65.5 °F /  18.6 °C 29.85 in /  1010.7 hPa South 1.1 mph /  1.8 km/h 2.3 mph /  3.7 km/h 61 % 0.00 in /  0 mm
19:32 79.8 °F /  26.6 °C 65.2 °F /  18.4 °C 29.85 in /  1010.7 hPa South 2.1 mph /  3.4 km/h 3.5 mph /  5.6 km/h 61 % 0.00 in /  0 mm
19:37 79.6 °F /  26.4 °C 65.4 °F /  18.6 °C 29.85 in /  1010.7 hPa South 1.6 mph /  2.6 km/h 3.5 mph /  5.6 km/h 62 % 0.00 in /  0 mm
19:42 79.2 °F /  26.2 °C 65.1 °F /  18.4 °C 29.85 in /  1010.7 hPa South 1.6 mph /  2.6 km/h 3.5 mph /  5.6 km/h 62 % 0.00 in /  0 mm
19:47 78.9 °F /  26.1 °C 64.8 °F /  18.2 °C 29.85 in /  1010.7 hPa SSE 1.1 mph /  1.8 km/h 3.5 mph /  5.6 km/h 62 % 0.00 in /  0 mm
19:52 78.6 °F /  25.9 °C 64.9 °F /  18.3 °C 29.85 in /  1010.7 hPa SW 1.0 mph /  1.6 km/h 2.0 mph /  3.2 km/h 63 % 0.00 in /  0 mm
19:58 78.4 °F /  25.8 °C 64.8 °F /  18.2 °C 29.85 in /  1010.7 hPa SSE 1.4 mph /  2.3 km/h 5.8 mph /  9.3 km/h 63 % 0.00 in /  0 mm
20:03 78.0 °F /  25.6 °C 64.8 °F /  18.2 °C 29.86 in /  1011.1 hPa SSW 0.4 mph /  0.6 km/h 3.5 mph /  5.6 km/h 64 % 0.00 in /  0 mm
20:08 77.8 °F /  25.4 °C 64.6 °F /  18.1 °C 29.86 in /  1011.1 hPa SSW 0.2 mph /  0.3 km/h 1.2 mph /  1.9 km/h 64 % 0.00 in /  0 mm
20:13 77.6 °F /  25.3 °C 64.9 °F /  18.3 °C 29.86 in /  1011.1 hPa SE 0.6 mph /  1 km/h 3.5 mph /  5.6 km/h 65 % 0.00 in /  0 mm
20:18 77.2 °F /  25.1 °C 64.5 °F /  18.1 °C 29.86 in /  1011.1 hPa SE 0.1 mph /  0.2 km/h 2.3 mph /  3.7 km/h 65 % 0.00 in /  0 mm
20:23 76.9 °F /  24.9 °C 64.7 °F /  18.2 °C 29.86 in /  1011.1 hPa SW 0.4 mph /  0.6 km/h 2.3 mph /  3.7 km/h 66 % 0.00 in /  0 mm
20:28 76.7 °F /  24.8 °C 64.5 °F /  18.1 °C 29.86 in /  1011.1 hPa SSW 0.5 mph /  0.8 km/h 3.5 mph /  5.6 km/h 66 % 0.00 in /  0 mm
20:33 76.4 °F /  24.7 °C 64.6 °F /  18.1 °C 29.86 in /  1011.1 hPa South 0.3 mph /  0.5 km/h 2.3 mph /  3.7 km/h 67 % 0.00 in /  0 mm
20:38 76.1 °F /  24.5 °C 64.3 °F /  17.9 °C 29.86 in /  1011.1 hPa South 0.6 mph /  1 km/h 2.3 mph /  3.7 km/h 67 % 0.00 in /  0 mm
20:43 75.9 °F /  24.4 °C 64.2 °F /  17.9 °C 29.86 in /  1011.1 hPa South 2.1 mph /  3.4 km/h 3.5 mph /  5.6 km/h 67 % 0.00 in /  0 mm
20:48 75.7 °F /  24.3 °C 64.4 °F /  18 °C 29.86 in /  1011.1 hPa WSW 1.0 mph /  1.6 km/h 2.3 mph /  3.7 km/h 68 % 0.00 in /  0 mm
20:53 75.5 °F /  24.2 °C 64.2 °F /  17.9 °C 29.87 in /  1011.4 hPa Calm   3.5 mph /  5.6 km/h 68 % 0.00 in /  0 mm
20:58 75.4 °F /  24.1 °C 64.5 °F /  18.1 °C 29.87 in /  1011.4 hPa WSW 0.9 mph /  1.4 km/h 2.3 mph /  3.7 km/h 69 % 0.00 in /  0 mm
21:03 75.1 °F /  23.9 °C 64.2 °F /  17.9 °C 29.87 in /  1011.4 hPa WSW 0.4 mph /  0.6 km/h 2.3 mph /  3.7 km/h 69 % 0.00 in /  0 mm
21:08 74.9 °F /  23.8 °C 64.0 °F /  17.8 °C 29.87 in /  1011.4 hPa WSW 0.9 mph /  1.4 km/h 3.5 mph /  5.6 km/h 69 % 0.00 in /  0 mm
21:13 74.7 °F /  23.7 °C 64.3 °F /  17.9 °C 29.87 in /  1011.4 hPa SSW 2.0 mph /  3.2 km/h 3.5 mph /  5.6 km/h 70 % 0.00 in /  0 mm
21:18 74.6 °F /  23.7 °C 64.2 °F /  17.9 °C 29.87 in /  1011.4 hPa SSE 1.2 mph /  1.9 km/h 3.5 mph /  5.6 km/h 70 % 0.00 in /  0 mm
21:23 74.5 °F /  23.6 °C 64.5 °F /  18.1 °C 29.87 in /  1011.4 hPa SSW 4.4 mph /  7.1 km/h 4.4 mph /  7.1 km/h 71 % 0.00 in /  0 mm
21:28 74.5 °F /  23.6 °C 64.5 °F /  18.1 °C 29.87 in /  1011.4 hPa WSW 1.1 mph /  1.8 km/h 6.9 mph /  11.1 km/h 71 % 0.00 in /  0 mm
21:33 74.4 °F /  23.6 °C 64.4 °F /  18 °C 29.87 in /  1011.4 hPa SW 2.0 mph /  3.2 km/h 5.0 mph /  8 km/h 71 % 0.00 in /  0 mm
21:38 74.5 °F /  23.6 °C 64.5 °F /  18.1 °C 29.88 in /  1011.7 hPa SW 0.9 mph /  1.4 km/h 3.5 mph /  5.6 km/h 71 % 0.00 in /  0 mm
21:43 74.5 °F /  23.6 °C 64.5 °F /  18.1 °C 29.88 in /  1011.7 hPa SW 3.4 mph /  5.5 km/h 3.5 mph /  5.6 km/h 71 % 0.00 in /  0 mm
21:49 74.6 °F /  23.7 °C 64.6 °F /  18.1 °C 29.88 in /  1011.7 hPa SW 2.4 mph /  3.9 km/h 3.5 mph /  5.6 km/h 71 % 0.00 in /  0 mm
21:54 74.7 °F /  23.7 °C 64.7 °F /  18.2 °C 29.88 in /  1011.7 hPa SSW 2.8 mph /  4.5 km/h 3.5 mph /  5.6 km/h 71 % 0.00 in /  0 mm
21:59 74.7 °F /  23.7 °C 64.7 °F /  18.2 °C 29.88 in /  1011.7 hPa SW 3.1 mph /  5 km/h 6.9 mph /  11.1 km/h 71 % 0.00 in /  0 mm
22:04 74.8 °F /  23.8 °C 64.8 °F /  18.2 °C 29.88 in /  1011.7 hPa SW 1.7 mph /  2.7 km/h 3.5 mph /  5.6 km/h 71 % 0.00 in /  0 mm
22:09 75.0 °F /  23.9 °C 64.5 °F /  18.1 °C 29.88 in /  1011.7 hPa SSW 3.1 mph /  5 km/h 4.6 mph /  7.4 km/h 70 % 0.00 in /  0 mm
22:14 75.0 °F /  23.9 °C 64.5 °F /  18.1 °C 29.88 in /  1011.7 hPa WSW 1.5 mph /  2.4 km/h 4.6 mph /  7.4 km/h 70 % 0.00 in /  0 mm
22:19 75.2 °F /  24 °C 64.7 °F /  18.2 °C 29.88 in /  1011.7 hPa WSW 0.9 mph /  1.4 km/h 2.3 mph /  3.7 km/h 70 % 0.00 in /  0 mm
22:24 75.3 °F /  24.1 °C 64.8 °F /  18.2 °C 29.88 in /  1011.7 hPa WSW 1.6 mph /  2.6 km/h 3.5 mph /  5.6 km/h 70 % 0.00 in /  0 mm
22:29 75.5 °F /  24.2 °C 65.0 °F /  18.3 °C 29.88 in /  1011.7 hPa West 3.0 mph /  4.8 km/h 4.6 mph /  7.4 km/h 70 % 0.00 in /  0 mm
22:34 75.6 °F /  24.2 °C 65.1 °F /  18.4 °C 29.88 in /  1011.7 hPa SSW 2.2 mph /  3.5 km/h 6.0 mph /  9.7 km/h 70 % 0.00 in /  0 mm
22:39 75.8 °F /  24.3 °C 64.9 °F /  18.3 °C 29.88 in /  1011.7 hPa WSW 2.2 mph /  3.5 km/h 5.8 mph /  9.3 km/h 69 % 0.00 in /  0 mm
22:44 75.9 °F /  24.4 °C 65.0 °F /  18.3 °C 29.88 in /  1011.7 hPa WNW 2.9 mph /  4.7 km/h 5.8 mph /  9.3 km/h 69 % 0.00 in /  0 mm
22:49 76.0 °F /  24.4 °C 65.1 °F /  18.4 °C 29.88 in /  1011.7 hPa WSW 3.9 mph /  6.3 km/h 8.0 mph /  12.9 km/h 69 % 0.00 in /  0 mm
22:54 76.2 °F /  24.6 °C 65.3 °F /  18.5 °C 29.88 in /  1011.7 hPa WSW 3.0 mph /  4.8 km/h 6.9 mph /  11.1 km/h 69 % 0.00 in /  0 mm
22:59 76.3 °F /  24.6 °C 65.4 °F /  18.6 °C 29.88 in /  1011.7 hPa SW 4.5 mph /  7.2 km/h 6.9 mph /  11.1 km/h 69 % 0.00 in /  0 mm
23:04 76.3 °F /  24.6 °C 65.8 °F /  18.8 °C 29.88 in /  1011.7 hPa SW 3.4 mph /  5.5 km/h 6.0 mph /  9.7 km/h 70 % 0.00 in /  0 mm
23:09 76.3 °F /  24.6 °C 65.8 °F /  18.8 °C 29.88 in /  1011.7 hPa WSW 2.1 mph /  3.4 km/h 5.8 mph /  9.3 km/h 70 % 0.00 in /  0 mm
23:14 76.3 °F /  24.6 °C 65.8 °F /  18.8 °C 29.88 in /  1011.7 hPa West 1.9 mph /  3.1 km/h 3.5 mph /  5.6 km/h 70 % 0.00 in /  0 mm
23:19 76.3 °F /  24.6 °C 65.8 °F /  18.8 °C 29.88 in /  1011.7 hPa SSW 2.6 mph /  4.2 km/h 3.5 mph /  5.6 km/h 70 % 0.00 in /  0 mm
23:24 76.4 °F /  24.7 °C 66.3 °F /  19.1 °C 29.88 in /  1011.7 hPa SSW 4.6 mph /  7.4 km/h 8.1 mph /  13 km/h 71 % 0.00 in /  0 mm
23:29 76.4 °F /  24.7 °C 66.3 °F /  19.1 °C 29.88 in /  1011.7 hPa SSW 4.5 mph /  7.2 km/h 11.5 mph /  18.5 km/h 71 % 0.00 in /  0 mm
23:34 76.4 °F /  24.7 °C 66.3 °F /  19.1 °C 29.88 in /  1011.7 hPa SSW 2.1 mph /  3.4 km/h 5.0 mph /  8 km/h 71 % 0.00 in /  0 mm
23:39 76.4 °F /  24.7 °C 66.3 °F /  19.1 °C 29.88 in /  1011.7 hPa WSW 2.7 mph /  4.3 km/h 3.5 mph /  5.6 km/h 71 % 0.00 in /  0 mm
23:44 76.5 °F /  24.7 °C 66.4 °F /  19.1 °C 29.88 in /  1011.7 hPa SW 3.1 mph /  5 km/h 6.9 mph /  11.1 km/h 71 % 0.00 in /  0 mm
23:49 76.5 °F /  24.7 °C 66.4 °F /  19.1 °C 29.88 in /  1011.7 hPa WSW 3.5 mph /  5.6 km/h 5.8 mph /  9.3 km/h 71 % 0.00 in /  0 mm
23:50 76.5 °F /  24.7 °C 66.4 °F /  19.1 °C 29.88 in /  1011.7 hPa WSW 2.0 mph /  3.2 km/h 5.8 mph /  9.3 km/h 71 % 0.00 in /  0 mm
23:55 76.5 °F /  24.7 °C 66.4 °F /  19.1 °C 29.88 in /  1011.7 hPa WSW 1.7 mph /  2.7 km/h 8.1 mph /  13 km/h 71 % 0.00 in /  0 mm
Crab Meadow Weather
Compliments of Weather Underground - 3 mb

Script developed by  Jim McMurry - jmcmurry@mwt.net Adapted for the template by  Wim van der Kuil - Leuven-Template.eu

Extremes: The highest temperature ever recorded in the United States was 134 degrees F at Greenland Ranch in Death Valley, California.